sensor_id;sensor_type;location;lat;lon;timestamp;P1;durP1;ratioP1;P2;durP2;ratioP2
75781;SDS011;64400;44.762;37.698;2023-04-24T00:01:41;8.48;;;3.88;;
75781;SDS011;64400;44.762;37.698;2023-04-24T00:04:23;6.57;;;2.92;;
75781;SDS011;64400;44.762;37.698;2023-04-24T00:07:06;8.00;;;3.28;;
75781;SDS011;64400;44.762;37.698;2023-04-24T00:09:48;9.05;;;3.40;;
75781;SDS011;64400;44.762;37.698;2023-04-24T00:12:31;6.63;;;3.47;;
75781;SDS011;64400;44.762;37.698;2023-04-24T00:15:13;5.03;;;3.00;;
75781;SDS011;64400;44.762;37.698;2023-04-24T00:18:02;7.00;;;3.83;;
75781;SDS011;64400;44.762;37.698;2023-04-24T00:20:44;7.57;;;3.35;;
75781;SDS011;64400;44.762;37.698;2023-04-24T00:23:26;6.78;;;3.28;;
75781;SDS011;64400;44.762;37.698;2023-04-24T00:26:07;4.88;;;2.75;;
75781;SDS011;64400;44.762;37.698;2023-04-24T00:28:49;8.20;;;2.88;;
75781;SDS011;64400;44.762;37.698;2023-04-24T00:31:31;4.82;;;2.63;;
75781;SDS011;64400;44.762;37.698;2023-04-24T00:34:22;6.15;;;3.35;;
75781;SDS011;64400;44.762;37.698;2023-04-24T00:37:11;4.68;;;2.78;;
75781;SDS011;64400;44.762;37.698;2023-04-24T00:39:44;5.15;;;2.67;;
75781;SDS011;64400;44.762;37.698;2023-04-24T00:42:16;4.32;;;2.60;;
75781;SDS011;64400;44.762;37.698;2023-04-24T00:45:05;5.65;;;2.13;;
75781;SDS011;64400;44.762;37.698;2023-04-24T00:47:38;6.53;;;2.72;;
75781;SDS011;64400;44.762;37.698;2023-04-24T00:50:27;6.28;;;3.20;;
75781;SDS011;64400;44.762;37.698;2023-04-24T00:53:00;7.18;;;2.97;;
75781;SDS011;64400;44.762;37.698;2023-04-24T00:55:49;5.78;;;2.80;;
75781;SDS011;64400;44.762;37.698;2023-04-24T00:58:39;4.68;;;2.75;;
75781;SDS011;64400;44.762;37.698;2023-04-24T01:01:29;7.07;;;2.90;;
75781;SDS011;64400;44.762;37.698;2023-04-24T01:04:19;5.78;;;2.63;;
75781;SDS011;64400;44.762;37.698;2023-04-24T01:07:08;6.22;;;2.67;;
75781;SDS011;64400;44.762;37.698;2023-04-24T01:10:00;6.45;;;2.67;;
75781;SDS011;64400;44.762;37.698;2023-04-24T01:12:51;6.25;;;2.78;;
75781;SDS011;64400;44.762;37.698;2023-04-24T01:15:21;4.80;;;2.60;;
75781;SDS011;64400;44.762;37.698;2023-04-24T01:17:50;6.05;;;2.90;;
75781;SDS011;64400;44.762;37.698;2023-04-24T01:20:41;5.18;;;2.80;;
75781;SDS011;64400;44.762;37.698;2023-04-24T01:23:32;7.10;;;3.17;;
75781;SDS011;64400;44.762;37.698;2023-04-24T01:26:06;7.15;;;3.17;;
75781;SDS011;64400;44.762;37.698;2023-04-24T01:28:35;5.15;;;2.80;;
75781;SDS011;64400;44.762;37.698;2023-04-24T01:31:25;7.82;;;3.28;;
75781;SDS011;64400;44.762;37.698;2023-04-24T01:34:07;5.07;;;3.10;;
75781;SDS011;64400;44.762;37.698;2023-04-24T01:36:49;6.10;;;2.78;;
75781;SDS011;64400;44.762;37.698;2023-04-24T01:39:31;5.72;;;3.30;;
75781;SDS011;64400;44.762;37.698;2023-04-24T01:42:14;6.55;;;3.10;;
75781;SDS011;64400;44.762;37.698;2023-04-24T01:45:03;5.18;;;3.13;;
75781;SDS011;64400;44.762;37.698;2023-04-24T01:47:53;6.47;;;3.05;;
75781;SDS011;64400;44.762;37.698;2023-04-24T01:50:55;6.20;;;3.10;;
75781;SDS011;64400;44.762;37.698;2023-04-24T01:53:37;5.75;;;3.08;;
75781;SDS011;64400;44.762;37.698;2023-04-24T01:56:19;8.73;;;3.33;;
75781;SDS011;64400;44.762;37.698;2023-04-24T01:59:03;5.70;;;3.05;;
75781;SDS011;64400;44.762;37.698;2023-04-24T02:01:45;6.38;;;3.55;;
75781;SDS011;64400;44.762;37.698;2023-04-24T02:04:27;5.60;;;3.20;;
75781;SDS011;64400;44.762;37.698;2023-04-24T02:07:08;5.63;;;3.70;;
75781;SDS011;64400;44.762;37.698;2023-04-24T02:09:50;5.00;;;2.85;;
75781;SDS011;64400;44.762;37.698;2023-04-24T02:12:20;6.32;;;3.35;;
75781;SDS011;64400;44.762;37.698;2023-04-24T02:15:09;5.53;;;2.97;;
75781;SDS011;64400;44.762;37.698;2023-04-24T02:17:56;6.63;;;3.20;;
75781;SDS011;64400;44.762;37.698;2023-04-24T02:20:44;7.32;;;3.13;;
75781;SDS011;64400;44.762;37.698;2023-04-24T02:23:33;6.82;;;3.10;;
75781;SDS011;64400;44.762;37.698;2023-04-24T02:26:15;6.15;;;2.90;;
75781;SDS011;64400;44.762;37.698;2023-04-24T02:28:57;6.82;;;2.88;;
75781;SDS011;64400;44.762;37.698;2023-04-24T02:31:43;6.88;;;3.72;;
75781;SDS011;64400;44.762;37.698;2023-04-24T02:34:25;8.00;;;3.38;;
75781;SDS011;64400;44.762;37.698;2023-04-24T02:37:07;7.72;;;3.40;;
75781;SDS011;64400;44.762;37.698;2023-04-24T02:39:48;4.90;;;2.60;;
75781;SDS011;64400;44.762;37.698;2023-04-24T02:42:20;7.07;;;3.55;;
75781;SDS011;64400;44.762;37.698;2023-04-24T02:45:09;4.35;;;2.08;;
75781;SDS011;64400;44.762;37.698;2023-04-24T02:47:58;8.07;;;3.67;;
75781;SDS011;64400;44.762;37.698;2023-04-24T02:50:38;6.45;;;3.42;;
75781;SDS011;64400;44.762;37.698;2023-04-24T02:53:26;6.65;;;3.75;;
75781;SDS011;64400;44.762;37.698;2023-04-24T02:56:02;7.55;;;3.65;;
75781;SDS011;64400;44.762;37.698;2023-04-24T02:58:30;9.07;;;3.50;;
75781;SDS011;64400;44.762;37.698;2023-04-24T03:00:58;10.40;;;3.50;;
75781;SDS011;64400;44.762;37.698;2023-04-24T03:03:31;9.43;;;4.22;;
75781;SDS011;64400;44.762;37.698;2023-04-24T03:06:20;5.97;;;3.70;;
75781;SDS011;64400;44.762;37.698;2023-04-24T03:08:51;6.93;;;3.50;;
75781;SDS011;64400;44.762;37.698;2023-04-24T03:11:40;9.90;;;3.83;;
75781;SDS011;64400;44.762;37.698;2023-04-24T03:14:28;7.70;;;3.97;;
75781;SDS011;64400;44.762;37.698;2023-04-24T03:16:59;7.30;;;3.85;;
75781;SDS011;64400;44.762;37.698;2023-04-24T03:19:48;7.40;;;4.00;;
75781;SDS011;64400;44.762;37.698;2023-04-24T03:22:30;8.55;;;3.72;;
75781;SDS011;64400;44.762;37.698;2023-04-24T03:25:13;7.35;;;4.22;;
75781;SDS011;64400;44.762;37.698;2023-04-24T03:27:55;8.95;;;4.15;;
75781;SDS011;64400;44.762;37.698;2023-04-24T03:30:43;7.53;;;4.07;;
75781;SDS011;64400;44.762;37.698;2023-04-24T03:33:28;8.70;;;4.00;;
75781;SDS011;64400;44.762;37.698;2023-04-24T03:36:10;8.73;;;4.18;;
75781;SDS011;64400;44.762;37.698;2023-04-24T03:38:59;8.57;;;4.20;;
75781;SDS011;64400;44.762;37.698;2023-04-24T03:41:47;8.63;;;4.40;;
75781;SDS011;64400;44.762;37.698;2023-04-24T03:44:40;8.43;;;4.50;;
75781;SDS011;64400;44.762;37.698;2023-04-24T03:47:33;8.93;;;4.57;;
75781;SDS011;64400;44.762;37.698;2023-04-24T03:50:05;7.95;;;4.80;;
75781;SDS011;64400;44.762;37.698;2023-04-24T03:52:54;6.93;;;4.40;;
75781;SDS011;64400;44.762;37.698;2023-04-24T03:55:35;10.00;;;4.32;;
75781;SDS011;64400;44.762;37.698;2023-04-24T03:58:24;7.60;;;4.60;;
75781;SDS011;64400;44.762;37.698;2023-04-24T04:01:13;7.78;;;4.60;;
75781;SDS011;64400;44.762;37.698;2023-04-24T04:04:01;8.50;;;4.68;;
75781;SDS011;64400;44.762;37.698;2023-04-24T04:06:44;9.32;;;4.03;;
75781;SDS011;64400;44.762;37.698;2023-04-24T04:09:28;7.53;;;4.13;;
75781;SDS011;64400;44.762;37.698;2023-04-24T04:12:10;8.60;;;5.28;;
75781;SDS011;64400;44.762;37.698;2023-04-24T04:14:51;7.95;;;4.18;;
75781;SDS011;64400;44.762;37.698;2023-04-24T04:17:52;9.15;;;4.15;;
75781;SDS011;64400;44.762;37.698;2023-04-24T04:20:40;7.25;;;4.40;;
75781;SDS011;64400;44.762;37.698;2023-04-24T04:23:29;9.35;;;4.63;;
75781;SDS011;64400;44.762;37.698;2023-04-24T04:26:27;9.35;;;4.50;;
75781;SDS011;64400;44.762;37.698;2023-04-24T04:29:02;8.43;;;4.28;;
75781;SDS011;64400;44.762;37.698;2023-04-24T04:31:51;7.18;;;4.45;;
75781;SDS011;64400;44.762;37.698;2023-04-24T04:34:40;8.48;;;4.60;;
75781;SDS011;64400;44.762;37.698;2023-04-24T04:37:25;6.55;;;4.10;;
75781;SDS011;64400;44.762;37.698;2023-04-24T04:40:34;8.65;;;4.30;;
75781;SDS011;64400;44.762;37.698;2023-04-24T04:43:18;9.73;;;4.28;;
75781;SDS011;64400;44.762;37.698;2023-04-24T04:45:59;7.63;;;4.38;;
75781;SDS011;64400;44.762;37.698;2023-04-24T04:49:00;7.03;;;3.90;;
75781;SDS011;64400;44.762;37.698;2023-04-24T04:51:42;9.65;;;4.15;;
75781;SDS011;64400;44.762;37.698;2023-04-24T04:54:26;10.30;;;4.43;;
75781;SDS011;64400;44.762;37.698;2023-04-24T04:57:08;7.03;;;4.18;;
75781;SDS011;64400;44.762;37.698;2023-04-24T04:59:58;7.20;;;3.83;;
75781;SDS011;64400;44.762;37.698;2023-04-24T05:02:40;6.90;;;4.20;;
75781;SDS011;64400;44.762;37.698;2023-04-24T05:05:29;5.82;;;3.90;;
75781;SDS011;64400;44.762;37.698;2023-04-24T05:08:18;8.02;;;3.88;;
75781;SDS011;64400;44.762;37.698;2023-04-24T05:10:51;11.82;;;4.55;;
75781;SDS011;64400;44.762;37.698;2023-04-24T05:13:40;11.00;;;4.32;;
75781;SDS011;64400;44.762;37.698;2023-04-24T05:16:16;8.27;;;4.10;;
75781;SDS011;64400;44.762;37.698;2023-04-24T05:18:58;9.40;;;4.38;;
75781;SDS011;64400;44.762;37.698;2023-04-24T05:21:41;8.65;;;3.95;;
75781;SDS011;64400;44.762;37.698;2023-04-24T05:24:08;8.88;;;4.68;;
75781;SDS011;64400;44.762;37.698;2023-04-24T05:29:52;13.13;;;4.70;;
75781;SDS011;64400;44.762;37.698;2023-04-24T05:32:40;13.68;;;5.10;;
75781;SDS011;64400;44.762;37.698;2023-04-24T05:35:10;9.00;;;4.55;;
75781;SDS011;64400;44.762;37.698;2023-04-24T05:42:53;9.05;;;4.93;;
75781;SDS011;64400;44.762;37.698;2023-04-24T05:45:42;8.75;;;4.95;;
75781;SDS011;64400;44.762;37.698;2023-04-24T05:48:11;11.40;;;4.53;;
75781;SDS011;64400;44.762;37.698;2023-04-24T05:50:42;8.60;;;4.85;;
75781;SDS011;64400;44.762;37.698;2023-04-24T05:53:15;10.43;;;4.88;;
75781;SDS011;64400;44.762;37.698;2023-04-24T05:55:45;8.63;;;4.80;;
75781;SDS011;64400;44.762;37.698;2023-04-24T05:58:36;13.27;;;5.65;;
75781;SDS011;64400;44.762;37.698;2023-04-24T06:01:06;12.90;;;5.35;;
75781;SDS011;64400;44.762;37.698;2023-04-24T06:04:05;8.25;;;4.80;;
75781;SDS011;64400;44.762;37.698;2023-04-24T06:06:54;13.68;;;6.13;;
75781;SDS011;64400;44.762;37.698;2023-04-24T06:09:45;12.52;;;5.93;;
75781;SDS011;64400;44.762;37.698;2023-04-24T06:12:40;7.82;;;4.93;;
75781;SDS011;64400;44.762;37.698;2023-04-24T06:15:16;10.52;;;4.90;;
75781;SDS011;64400;44.762;37.698;2023-04-24T06:18:10;12.20;;;4.82;;
75781;SDS011;64400;44.762;37.698;2023-04-24T06:20:41;11.40;;;5.40;;
75781;SDS011;64400;44.762;37.698;2023-04-24T06:23:30;12.68;;;5.05;;
75781;SDS011;64400;44.762;37.698;2023-04-24T06:26:06;13.02;;;5.85;;
75781;SDS011;64400;44.762;37.698;2023-04-24T06:28:55;12.70;;;5.45;;
75781;SDS011;64400;44.762;37.698;2023-04-24T06:31:44;13.18;;;5.88;;
75781;SDS011;64400;44.762;37.698;2023-04-24T06:34:15;10.70;;;5.78;;
75781;SDS011;64400;44.762;37.698;2023-04-24T06:37:03;14.20;;;7.75;;
75781;SDS011;64400;44.762;37.698;2023-04-24T06:39:45;14.18;;;8.10;;
75781;SDS011;64400;44.762;37.698;2023-04-24T06:42:31;14.02;;;9.43;;
75781;SDS011;64400;44.762;37.698;2023-04-24T06:45:12;14.43;;;8.80;;
75781;SDS011;64400;44.762;37.698;2023-04-24T06:47:54;15.63;;;8.93;;
75781;SDS011;64400;44.762;37.698;2023-04-24T06:50:37;13.57;;;9.10;;
75781;SDS011;64400;44.762;37.698;2023-04-24T06:53:18;13.38;;;9.10;;
75781;SDS011;64400;44.762;37.698;2023-04-24T06:55:48;12.88;;;8.63;;
75781;SDS011;64400;44.762;37.698;2023-04-24T06:58:37;12.75;;;8.40;;
75781;SDS011;64400;44.762;37.698;2023-04-24T07:01:26;15.23;;;9.77;;
75781;SDS011;64400;44.762;37.698;2023-04-24T07:04:13;13.07;;;9.80;;
75781;SDS011;64400;44.762;37.698;2023-04-24T07:06:46;12.00;;;8.52;;
75781;SDS011;64400;44.762;37.698;2023-04-24T07:09:22;12.73;;;8.30;;
75781;SDS011;64400;44.762;37.698;2023-04-24T07:12:13;10.30;;;8.02;;
75781;SDS011;64400;44.762;37.698;2023-04-24T07:14:43;15.52;;;8.90;;
75781;SDS011;64400;44.762;37.698;2023-04-24T07:17:25;14.80;;;10.20;;
75781;SDS011;64400;44.762;37.698;2023-04-24T07:19:54;17.45;;;10.32;;
75781;SDS011;64400;44.762;37.698;2023-04-24T07:22:23;20.70;;;11.43;;
75781;SDS011;64400;44.762;37.698;2023-04-24T07:25:11;13.68;;;10.35;;
75781;SDS011;64400;44.762;37.698;2023-04-24T07:28:01;13.35;;;10.38;;
75781;SDS011;64400;44.762;37.698;2023-04-24T07:30:33;14.48;;;9.73;;
75781;SDS011;64400;44.762;37.698;2023-04-24T07:33:07;15.13;;;9.38;;
75781;SDS011;64400;44.762;37.698;2023-04-24T07:35:38;17.85;;;10.90;;
75781;SDS011;64400;44.762;37.698;2023-04-24T07:38:10;15.77;;;10.23;;
75781;SDS011;64400;44.762;37.698;2023-04-24T07:40:59;13.18;;;9.35;;
75781;SDS011;64400;44.762;37.698;2023-04-24T07:43:41;13.05;;;9.15;;
75781;SDS011;64400;44.762;37.698;2023-04-24T07:46:23;14.48;;;8.82;;
75781;SDS011;64400;44.762;37.698;2023-04-24T07:49:05;11.95;;;8.73;;
75781;SDS011;64400;44.762;37.698;2023-04-24T07:51:48;13.45;;;8.55;;
75781;SDS011;64400;44.762;37.698;2023-04-24T07:54:31;12.88;;;8.25;;
75781;SDS011;64400;44.762;37.698;2023-04-24T07:57:13;12.85;;;8.93;;
75781;SDS011;64400;44.762;37.698;2023-04-24T07:59:54;12.70;;;8.52;;
75781;SDS011;64400;44.762;37.698;2023-04-24T08:02:22;11.68;;;8.23;;
75781;SDS011;64400;44.762;37.698;2023-04-24T08:05:14;11.27;;;7.20;;
75781;SDS011;64400;44.762;37.698;2023-04-24T08:07:45;14.55;;;8.82;;
75781;SDS011;64400;44.762;37.698;2023-04-24T08:10:36;11.23;;;7.90;;
75781;SDS011;64400;44.762;37.698;2023-04-24T08:13:25;13.27;;;7.88;;
75781;SDS011;64400;44.762;37.698;2023-04-24T08:15:54;11.70;;;8.05;;
75781;SDS011;64400;44.762;37.698;2023-04-24T08:18:35;12.00;;;8.00;;
75781;SDS011;64400;44.762;37.698;2023-04-24T08:21:04;10.30;;;7.10;;
75781;SDS011;64400;44.762;37.698;2023-04-24T08:23:52;12.15;;;7.57;;
75781;SDS011;64400;44.762;37.698;2023-04-24T08:26:34;11.25;;;7.25;;
75781;SDS011;64400;44.762;37.698;2023-04-24T08:29:16;10.32;;;7.50;;
75781;SDS011;64400;44.762;37.698;2023-04-24T08:31:58;12.18;;;7.68;;
75781;SDS011;64400;44.762;37.698;2023-04-24T08:34:40;15.45;;;9.13;;
75781;SDS011;64400;44.762;37.698;2023-04-24T08:37:22;16.48;;;9.48;;
75781;SDS011;64400;44.762;37.698;2023-04-24T08:40:14;12.10;;;8.73;;
75781;SDS011;64400;44.762;37.698;2023-04-24T08:42:57;12.48;;;8.98;;
75781;SDS011;64400;44.762;37.698;2023-04-24T08:45:41;13.05;;;9.10;;
75781;SDS011;64400;44.762;37.698;2023-04-24T08:48:23;12.68;;;8.98;;
75781;SDS011;64400;44.762;37.698;2023-04-24T08:50:58;15.45;;;9.15;;
75781;SDS011;64400;44.762;37.698;2023-04-24T08:53:48;15.20;;;9.80;;
75781;SDS011;64400;44.762;37.698;2023-04-24T08:56:22;15.70;;;10.18;;
75781;SDS011;64400;44.762;37.698;2023-04-24T08:58:53;16.35;;;10.32;;
75781;SDS011;64400;44.762;37.698;2023-04-24T09:01:28;15.90;;;10.00;;
75781;SDS011;64400;44.762;37.698;2023-04-24T09:04:12;16.90;;;10.10;;
75781;SDS011;64400;44.762;37.698;2023-04-24T09:06:57;16.83;;;10.77;;
75781;SDS011;64400;44.762;37.698;2023-04-24T09:09:30;16.75;;;9.60;;
75781;SDS011;64400;44.762;37.698;2023-04-24T09:12:13;14.82;;;9.70;;
75781;SDS011;64400;44.762;37.698;2023-04-24T09:15:02;13.48;;;9.43;;
75781;SDS011;64400;44.762;37.698;2023-04-24T09:17:52;12.73;;;8.90;;
75781;SDS011;64400;44.762;37.698;2023-04-24T09:23:01;13.25;;;8.55;;
75781;SDS011;64400;44.762;37.698;2023-04-24T09:25:43;13.88;;;7.82;;
75781;SDS011;64400;44.762;37.698;2023-04-24T09:28:38;13.75;;;8.65;;
75781;SDS011;64400;44.762;37.698;2023-04-24T09:31:21;19.42;;;9.82;;
75781;SDS011;64400;44.762;37.698;2023-04-24T09:34:04;14.25;;;9.90;;
75781;SDS011;64400;44.762;37.698;2023-04-24T09:36:49;14.57;;;9.52;;
75781;SDS011;64400;44.762;37.698;2023-04-24T09:39:38;17.98;;;11.05;;
75781;SDS011;64400;44.762;37.698;2023-04-24T09:42:29;10.65;;;6.82;;
75781;SDS011;64400;44.762;37.698;2023-04-24T09:44:57;13.60;;;7.13;;
75781;SDS011;64400;44.762;37.698;2023-04-24T09:47:46;9.18;;;5.70;;
75781;SDS011;64400;44.762;37.698;2023-04-24T09:50:45;11.23;;;6.78;;
75781;SDS011;64400;44.762;37.698;2023-04-24T09:53:35;14.43;;;7.65;;
75781;SDS011;64400;44.762;37.698;2023-04-24T09:56:22;11.55;;;6.60;;
75781;SDS011;64400;44.762;37.698;2023-04-24T09:59:07;10.48;;;6.72;;
75781;SDS011;64400;44.762;37.698;2023-04-24T10:01:49;10.75;;;6.57;;
75781;SDS011;64400;44.762;37.698;2023-04-24T10:04:32;12.38;;;7.93;;
75781;SDS011;64400;44.762;37.698;2023-04-24T10:07:20;12.43;;;6.65;;
75781;SDS011;64400;44.762;37.698;2023-04-24T10:10:02;10.48;;;7.15;;
75781;SDS011;64400;44.762;37.698;2023-04-24T10:12:33;11.70;;;7.18;;
75781;SDS011;64400;44.762;37.698;2023-04-24T10:15:05;12.15;;;6.60;;
75781;SDS011;64400;44.762;37.698;2023-04-24T10:17:35;15.20;;;7.25;;
75781;SDS011;64400;44.762;37.698;2023-04-24T10:20:06;15.88;;;8.07;;
75781;SDS011;64400;44.762;37.698;2023-04-24T10:22:56;11.18;;;6.97;;
75781;SDS011;64400;44.762;37.698;2023-04-24T10:25:32;14.02;;;7.40;;
75781;SDS011;64400;44.762;37.698;2023-04-24T10:28:05;10.65;;;7.18;;
75781;SDS011;64400;44.762;37.698;2023-04-24T10:30:54;15.05;;;8.75;;
75781;SDS011;64400;44.762;37.698;2023-04-24T10:33:23;12.32;;;8.00;;
75781;SDS011;64400;44.762;37.698;2023-04-24T10:36:12;10.75;;;6.95;;
75781;SDS011;64400;44.762;37.698;2023-04-24T10:38:42;11.30;;;6.68;;
75781;SDS011;64400;44.762;37.698;2023-04-24T10:41:16;11.85;;;7.13;;
75781;SDS011;64400;44.762;37.698;2023-04-24T10:44:14;11.13;;;6.95;;
75781;SDS011;64400;44.762;37.698;2023-04-24T10:47:03;13.02;;;7.47;;
75781;SDS011;64400;44.762;37.698;2023-04-24T10:49:45;13.27;;;7.65;;
75781;SDS011;64400;44.762;37.698;2023-04-24T10:52:43;11.32;;;7.90;;
75781;SDS011;64400;44.762;37.698;2023-04-24T10:55:46;12.43;;;7.88;;
75781;SDS011;64400;44.762;37.698;2023-04-24T10:58:37;12.68;;;7.88;;
75781;SDS011;64400;44.762;37.698;2023-04-24T11:01:09;11.95;;;8.07;;
75781;SDS011;64400;44.762;37.698;2023-04-24T11:04:22;14.30;;;9.45;;
75781;SDS011;64400;44.762;37.698;2023-04-24T11:07:19;14.30;;;8.93;;
75781;SDS011;64400;44.762;37.698;2023-04-24T11:10:02;15.65;;;9.60;;
75781;SDS011;64400;44.762;37.698;2023-04-24T11:12:45;12.68;;;7.93;;
75781;SDS011;64400;44.762;37.698;2023-04-24T11:15:34;11.43;;;7.93;;
75781;SDS011;64400;44.762;37.698;2023-04-24T11:18:15;13.25;;;7.70;;
75781;SDS011;64400;44.762;37.698;2023-04-24T11:20:57;12.55;;;7.50;;
75781;SDS011;64400;44.762;37.698;2023-04-24T11:23:47;14.15;;;6.78;;
75781;SDS011;64400;44.762;37.698;2023-04-24T11:26:29;15.00;;;7.05;;
75781;SDS011;64400;44.762;37.698;2023-04-24T11:29:14;9.45;;;6.53;;
75781;SDS011;64400;44.762;37.698;2023-04-24T11:31:56;11.70;;;7.10;;
75781;SDS011;64400;44.762;37.698;2023-04-24T11:34:45;10.85;;;6.30;;
75781;SDS011;64400;44.762;37.698;2023-04-24T11:37:37;7.50;;;4.97;;
75781;SDS011;64400;44.762;37.698;2023-04-24T11:40:09;9.00;;;5.55;;
75781;SDS011;64400;44.762;37.698;2023-04-24T11:42:43;8.77;;;5.18;;
75781;SDS011;64400;44.762;37.698;2023-04-24T11:45:32;9.23;;;5.22;;
75781;SDS011;64400;44.762;37.698;2023-04-24T11:48:11;11.32;;;6.53;;
75781;SDS011;64400;44.762;37.698;2023-04-24T11:50:45;10.52;;;4.70;;
75781;SDS011;64400;44.762;37.698;2023-04-24T11:53:34;10.20;;;5.20;;
75781;SDS011;64400;44.762;37.698;2023-04-24T11:56:05;9.50;;;5.32;;
75781;SDS011;64400;44.762;37.698;2023-04-24T11:58:56;7.57;;;4.70;;
75781;SDS011;64400;44.762;37.698;2023-04-24T12:01:24;7.78;;;4.30;;
75781;SDS011;64400;44.762;37.698;2023-04-24T12:03:58;6.75;;;4.38;;
75781;SDS011;64400;44.762;37.698;2023-04-24T12:06:28;8.23;;;5.22;;
75781;SDS011;64400;44.762;37.698;2023-04-24T12:08:58;7.13;;;4.60;;
75781;SDS011;64400;44.762;37.698;2023-04-24T12:11:37;6.50;;;4.35;;
75781;SDS011;64400;44.762;37.698;2023-04-24T12:14:24;7.93;;;4.23;;
75781;SDS011;64400;44.762;37.698;2023-04-24T12:16:52;6.63;;;4.22;;
75781;SDS011;64400;44.762;37.698;2023-04-24T12:19:47;6.93;;;4.72;;
75781;SDS011;64400;44.762;37.698;2023-04-24T12:25:50;7.97;;;4.53;;
75781;SDS011;64400;44.762;37.698;2023-04-24T12:28:20;7.43;;;4.53;;
75781;SDS011;64400;44.762;37.698;2023-04-24T12:30:50;9.50;;;4.72;;
75781;SDS011;64400;44.762;37.698;2023-04-24T12:33:39;7.90;;;4.47;;
75781;SDS011;64400;44.762;37.698;2023-04-24T12:36:09;6.15;;;3.90;;
75781;SDS011;64400;44.762;37.698;2023-04-24T12:38:39;7.32;;;4.35;;
75781;SDS011;64400;44.762;37.698;2023-04-24T12:41:14;7.47;;;4.45;;
75781;SDS011;64400;44.762;37.698;2023-04-24T12:44:03;8.27;;;4.88;;
75781;SDS011;64400;44.762;37.698;2023-04-24T12:46:32;8.55;;;4.78;;
75781;SDS011;64400;44.762;37.698;2023-04-24T12:49:21;6.85;;;4.60;;
75781;SDS011;64400;44.762;37.698;2023-04-24T12:51:51;8.63;;;5.00;;
75781;SDS011;64400;44.762;37.698;2023-04-24T12:54:38;6.50;;;4.60;;
75781;SDS011;64400;44.762;37.698;2023-04-24T12:57:08;7.68;;;4.70;;
75781;SDS011;64400;44.762;37.698;2023-04-24T12:59:57;8.10;;;4.63;;
75781;SDS011;64400;44.762;37.698;2023-04-24T13:02:46;7.40;;;4.50;;
75781;SDS011;64400;44.762;37.698;2023-04-24T13:05:35;11.95;;;5.18;;
75781;SDS011;64400;44.762;37.698;2023-04-24T13:08:03;5.50;;;3.72;;
75781;SDS011;64400;44.762;37.698;2023-04-24T13:10:33;8.65;;;4.50;;
75781;SDS011;64400;44.762;37.698;2023-04-24T13:13:22;10.13;;;5.15;;
75781;SDS011;64400;44.762;37.698;2023-04-24T13:15:56;7.90;;;5.03;;
75781;SDS011;64400;44.762;37.698;2023-04-24T13:18:24;8.60;;;5.55;;
75781;SDS011;64400;44.762;37.698;2023-04-24T13:21:13;9.73;;;5.63;;
75781;SDS011;64400;44.762;37.698;2023-04-24T13:23:43;9.10;;;6.30;;
75781;SDS011;64400;44.762;37.698;2023-04-24T13:26:23;9.55;;;6.40;;
75781;SDS011;64400;44.762;37.698;2023-04-24T13:29:12;10.55;;;6.70;;
75781;SDS011;64400;44.762;37.698;2023-04-24T13:31:54;9.50;;;6.07;;
75781;SDS011;64400;44.762;37.698;2023-04-24T13:34:43;10.63;;;5.93;;
75781;SDS011;64400;44.762;37.698;2023-04-24T13:37:26;8.05;;;5.68;;
75781;SDS011;64400;44.762;37.698;2023-04-24T13:40:15;7.30;;;4.93;;
75781;SDS011;64400;44.762;37.698;2023-04-24T13:42:45;10.90;;;7.35;;
75781;SDS011;64400;44.762;37.698;2023-04-24T13:45:22;8.57;;;5.60;;
75781;SDS011;64400;44.762;37.698;2023-04-24T13:47:51;6.07;;;4.50;;
75781;SDS011;64400;44.762;37.698;2023-04-24T13:50:42;8.80;;;5.50;;
75781;SDS011;64400;44.762;37.698;2023-04-24T13:53:16;7.28;;;5.22;;
75781;SDS011;64400;44.762;37.698;2023-04-24T13:56:05;7.53;;;4.90;;
75781;SDS011;64400;44.762;37.698;2023-04-24T13:58:53;8.48;;;4.97;;
75781;SDS011;64400;44.762;37.698;2023-04-24T14:01:23;9.30;;;5.32;;
75781;SDS011;64400;44.762;37.698;2023-04-24T14:04:14;11.48;;;6.47;;
75781;SDS011;64400;44.762;37.698;2023-04-24T14:07:04;11.52;;;6.65;;
75781;SDS011;64400;44.762;37.698;2023-04-24T14:09:34;12.10;;;7.25;;
75781;SDS011;64400;44.762;37.698;2023-04-24T14:12:23;10.27;;;6.70;;
75781;SDS011;64400;44.762;37.698;2023-04-24T14:14:57;10.27;;;6.65;;
75781;SDS011;64400;44.762;37.698;2023-04-24T14:17:30;10.38;;;7.20;;
75781;SDS011;64400;44.762;37.698;2023-04-24T14:20:01;7.45;;;5.30;;
75781;SDS011;64400;44.762;37.698;2023-04-24T14:22:50;8.55;;;4.60;;
75781;SDS011;64400;44.762;37.698;2023-04-24T14:25:39;7.97;;;6.05;;
75781;SDS011;64400;44.762;37.698;2023-04-24T14:28:27;11.52;;;6.40;;
75781;SDS011;64400;44.762;37.698;2023-04-24T14:31:19;11.35;;;7.85;;
75781;SDS011;64400;44.762;37.698;2023-04-24T14:33:49;9.57;;;6.70;;
75781;SDS011;64400;44.762;37.698;2023-04-24T14:36:37;7.65;;;5.07;;
75781;SDS011;64400;44.762;37.698;2023-04-24T14:39:07;7.72;;;5.18;;
75781;SDS011;64400;44.762;37.698;2023-04-24T14:41:37;7.75;;;4.55;;
75781;SDS011;64400;44.762;37.698;2023-04-24T14:44:06;7.45;;;4.75;;
75781;SDS011;64400;44.762;37.698;2023-04-24T14:46:34;7.35;;;4.63;;
75781;SDS011;64400;44.762;37.698;2023-04-24T14:49:23;8.43;;;4.95;;
75781;SDS011;64400;44.762;37.698;2023-04-24T14:52:12;10.60;;;5.13;;
75781;SDS011;64400;44.762;37.698;2023-04-24T14:55:01;8.82;;;5.13;;
75781;SDS011;64400;44.762;37.698;2023-04-24T14:57:52;9.68;;;5.63;;
75781;SDS011;64400;44.762;37.698;2023-04-24T15:00:26;9.65;;;5.80;;
75781;SDS011;64400;44.762;37.698;2023-04-24T15:03:15;9.30;;;5.78;;
75781;SDS011;64400;44.762;37.698;2023-04-24T15:06:04;8.73;;;5.57;;
75781;SDS011;64400;44.762;37.698;2023-04-24T15:08:53;10.02;;;5.40;;
75781;SDS011;64400;44.762;37.698;2023-04-24T15:11:22;8.77;;;5.32;;
75781;SDS011;64400;44.762;37.698;2023-04-24T15:14:11;13.52;;;5.90;;
75781;SDS011;64400;44.762;37.698;2023-04-24T15:16:53;10.10;;;5.82;;
75781;SDS011;64400;44.762;37.698;2023-04-24T15:19:34;8.93;;;5.40;;
75781;SDS011;64400;44.762;37.698;2023-04-24T15:22:16;10.18;;;5.30;;
75781;SDS011;64400;44.762;37.698;2023-04-24T15:24:58;10.65;;;5.88;;
75781;SDS011;64400;44.762;37.698;2023-04-24T15:27:47;12.70;;;8.40;;
75781;SDS011;64400;44.762;37.698;2023-04-24T15:30:35;10.30;;;6.65;;
75781;SDS011;64400;44.762;37.698;2023-04-24T15:33:05;8.48;;;5.88;;
75781;SDS011;64400;44.762;37.698;2023-04-24T15:35:54;11.13;;;6.65;;
75781;SDS011;64400;44.762;37.698;2023-04-24T15:38:35;9.77;;;5.43;;
75781;SDS011;64400;44.762;37.698;2023-04-24T15:41:06;8.35;;;5.72;;
75781;SDS011;64400;44.762;37.698;2023-04-24T15:43:55;9.23;;;6.03;;
75781;SDS011;64400;44.762;37.698;2023-04-24T15:46:43;8.00;;;5.88;;
75781;SDS011;64400;44.762;37.698;2023-04-24T15:49:32;10.23;;;6.28;;
75781;SDS011;64400;44.762;37.698;2023-04-24T15:52:21;8.85;;;5.95;;
75781;SDS011;64400;44.762;37.698;2023-04-24T15:55:10;11.52;;;6.55;;
75781;SDS011;64400;44.762;37.698;2023-04-24T15:57:42;11.43;;;6.85;;
75781;SDS011;64400;44.762;37.698;2023-04-24T16:00:12;13.98;;;7.07;;
75781;SDS011;64400;44.762;37.698;2023-04-24T16:02:42;11.65;;;7.50;;
75781;SDS011;64400;44.762;37.698;2023-04-24T16:05:20;12.52;;;7.63;;
75781;SDS011;64400;44.762;37.698;2023-04-24T16:08:11;14.77;;;7.50;;
75781;SDS011;64400;44.762;37.698;2023-04-24T16:10:48;11.70;;;7.40;;